This is the latest recevied weather packets stored in our database for station/object GBTWP-2. If no packets are shown the sender has not sent any weather packets the latest 10 day(s).
| Time | Temp. | Humidity | Pressure | Rain* | Wind** | Luminosity | Snow |
|---|---|---|---|---|---|---|---|
| 1787937120 | 22.78° C | 57% | 1025.1 hPa | 0 mm | - | 161 W/m² | - |
| 1787936819 | 23.33° C | 54% | 1025 hPa | 0 mm | - | 275 W/m² | - |
| 1787936519 | 22.78° C | 55% | 1024.9 hPa | 0 mm | - | 358 W/m² | - |
| 1787936220 | 23.33° C | 54% | 1025 hPa | 0 mm | - | 302 W/m² | - |
| 1787935920 | 23.89° C | 54% | 1025 hPa | 0 mm | - | 449 W/m² | - |
| 1787935620 | 23.33° C | 54% | 1025.2 hPa | 0 mm | - | 447 W/m² | - |
| 1787935319 | 23.89° C | 52% | 1025.1 hPa | 0 mm | - | 449 W/m² | - |
| 1787935018 | 23.33° C | 54% | 1024.9 hPa | 0 mm | - | 656 W/m² | - |
| 1787934719 | 22.78° C | 56% | 1025.1 hPa | 0 mm | - | 684 W/m² | - |
| 1787934420 | 23.33° C | 56% | 1025.1 hPa | 0 mm | - | 242 W/m² | - |
| 1787934118 | 23.33° C | 57% | 1025.1 hPa | 0 mm | - | 630 W/m² | - |
| 1787933821 | 22.78° C | 57% | 1025 hPa | 0 mm | - | 587 W/m² | - |
| 1787933520 | 22.78° C | 56% | 1025 hPa | 0 mm | - | 574 W/m² | - |
| 1787933220 | 22.78° C | 56% | 1025.1 hPa | 0 mm | - | 570 W/m² | - |
| 1787932920 | 23.33° C | 56% | 1025.1 hPa | 0 mm | - | 568 W/m² | - |
| 1787932621 | 23.33° C | 57% | 1025.1 hPa | 0 mm | - | 560 W/m² | - |
| 1787932320 | 23.33° C | 57% | 1025.1 hPa | 0 mm | - | 552 W/m² | - |
| 1787932020 | 22.22° C | 57% | 1025.2 hPa | 0 mm | - | 548 W/m² | - |
| 1787931717 | 22.22° C | 58% | 1025.2 hPa | 0 mm | - | 541 W/m² | - |
| 1787931420 | 21.67° C | 60% | 1025.3 hPa | 0 mm | - | 533 W/m² | - |
| 1787931120 | 22.22° C | 60% | 1025.1 hPa | 0 mm | - | 523 W/m² | - |
| 1787930820 | 21.67° C | 62% | 1025.2 hPa | 0 mm | - | 521 W/m² | - |
| 1787930520 | 21.11° C | 64% | 1025.3 hPa | 0 mm | - | 510 W/m² | - |
| 1787930218 | 21.11° C | 64% | 1025.2 hPa | 0 mm | - | 500 W/m² | - |
| 1787929920 | 21.11° C | 64% | 1025.1 hPa | 0 mm | - | 493 W/m² | - |
* Rain latest hour (hover to see other rain measurements)
** Current wind speed in m/s (hover to see current wind gust speed)